createdAt,value
2023-03-14T00:00:41.955Z,87303.00
2023-03-14T00:01:41.958Z,87297.00
2023-03-14T00:02:42.040Z,87295.00
2023-03-14T00:07:41.887Z,87267.00
2023-03-14T00:08:41.841Z,87269.00
2023-03-14T00:09:41.796Z,87269.00
2023-03-14T00:10:41.802Z,87275.00
2023-03-14T00:11:41.775Z,87277.00
2023-03-14T00:12:41.742Z,87277.00
2023-03-14T00:13:41.733Z,87273.00
2023-03-14T00:14:41.721Z,87271.00
2023-03-14T00:15:41.768Z,87267.00
2023-03-14T00:16:41.706Z,87260.00
2023-03-14T03:28:39.727Z,86964.00
2023-03-14T03:29:39.750Z,86960.00
2023-03-14T03:30:39.788Z,86954.00
2023-03-14T03:31:39.768Z,86943.00
2023-03-14T03:32:39.812Z,86943.00
2023-03-14T03:33:39.823Z,86943.00
2023-03-14T03:34:39.818Z,86950.00
2023-03-14T03:35:39.840Z,86950.00
2023-03-14T03:36:39.862Z,86941.00
2023-03-14T03:37:39.871Z,86950.00
2023-03-14T03:38:39.894Z,86939.00
2023-03-14T03:39:39.921Z,86941.00
2023-03-14T03:40:39.922Z,86941.00
2023-03-14T03:41:39.954Z,86939.00
2023-03-14T03:42:39.929Z,86943.00
2023-03-14T03:43:39.951Z,86950.00
2023-03-14T03:44:39.958Z,86950.00
2023-03-14T03:45:39.980Z,86950.00
2023-03-14T03:46:39.990Z,86950.00
2023-03-14T03:47:39.989Z,86956.00
2023-03-14T03:48:40.024Z,86956.00
2023-03-14T03:49:40.022Z,86960.00
2023-03-14T03:50:40.040Z,86960.00
2023-03-14T03:51:40.039Z,86956.00
2023-03-14T03:52:40.058Z,86954.00
2023-03-14T03:53:40.099Z,86954.00
2023-03-14T03:54:40.067Z,86952.00
2023-03-14T03:55:40.091Z,86956.00
2023-03-14T03:56:40.140Z,86962.00
2023-03-14T03:57:40.124Z,86962.00
2023-03-14T03:58:40.136Z,86962.00
2023-03-14T03:59:40.142Z,86962.00
2023-03-14T04:00:40.171Z,86966.00
2023-03-14T04:01:40.176Z,86964.00
2023-03-14T04:02:40.251Z,86968.00
2023-03-14T04:03:40.349Z,86962.00
2023-03-14T04:04:40.232Z,86960.00
2023-03-14T04:05:40.226Z,86954.00
2023-03-14T04:06:40.294Z,86941.00
2023-03-14T04:07:40.259Z,86937.00
2023-03-14T04:08:40.269Z,86934.00
2023-03-14T04:09:40.299Z,86928.00
2023-03-14T04:10:40.315Z,86928.00
2023-03-14T04:11:40.315Z,86928.00
2023-03-14T04:12:40.344Z,86926.00
2023-03-14T04:13:40.363Z,86926.00
2023-03-14T04:14:40.370Z,86926.00
2023-03-14T04:15:40.414Z,86920.00
2023-03-14T04:16:40.395Z,86922.00
2023-03-14T04:17:40.407Z,86920.00
2023-03-14T04:18:40.423Z,86918.00
2023-03-14T04:19:40.447Z,86920.00
2023-03-14T04:20:40.446Z,86920.00
2023-03-14T04:21:40.481Z,86920.00
2023-03-14T04:22:41.393Z,86920.00
2023-03-14T04:23:40.491Z,86916.00
2023-03-14T04:24:40.511Z,86912.00
2023-03-14T04:25:40.513Z,86908.00
2023-03-14T04:26:40.528Z,86912.00
2023-03-14T04:27:40.538Z,86902.00
2023-03-14T04:28:40.549Z,86896.00
2023-03-14T04:29:40.576Z,86912.00
2023-03-14T04:30:40.582Z,86912.00
2023-03-14T04:31:40.633Z,86898.00
2023-03-14T04:32:40.621Z,86900.00
2023-03-14T04:33:40.621Z,86908.00
2023-03-14T04:34:40.643Z,86904.00
2023-03-14T04:35:40.667Z,86908.00
2023-03-14T04:36:40.676Z,86906.00
2023-03-14T04:37:40.682Z,86910.00
2023-03-14T04:38:40.718Z,86908.00
2023-03-14T04:39:40.792Z,86910.00
2023-03-14T04:40:40.767Z,86900.00
2023-03-14T04:41:40.776Z,86906.00
2023-03-14T04:42:40.790Z,86910.00
2023-03-14T04:43:40.797Z,86912.00
2023-03-14T04:44:40.832Z,86916.00
2023-03-14T04:45:40.833Z,86918.00
2023-03-14T04:46:40.878Z,86926.00
2023-03-14T04:47:40.884Z,86926.00
2023-03-14T04:48:40.901Z,86920.00
2023-03-14T04:49:40.931Z,86916.00
2023-03-14T04:50:40.949Z,86916.00
2023-03-14T04:51:40.971Z,86910.00
2023-03-14T04:52:40.994Z,86912.00
2023-03-14T04:53:41.000Z,86914.00
2023-03-14T04:54:41.019Z,86916.00
2023-03-14T04:55:41.045Z,86916.00
2023-03-14T04:56:41.049Z,86918.00
2023-03-14T04:57:41.076Z,86914.00
2023-03-14T04:58:41.088Z,86914.00
2023-03-14T04:59:41.100Z,86906.00
2023-03-14T05:00:41.120Z,86908.00
2023-03-14T05:01:41.188Z,86902.00
2023-03-14T05:02:41.174Z,86902.00
2023-03-14T05:03:41.188Z,86902.00
2023-03-14T05:04:41.229Z,86900.00
2023-03-14T05:05:41.208Z,86900.00
2023-03-14T05:06:41.228Z,86892.00
2023-03-14T05:07:41.254Z,86885.00
2023-03-14T05:08:41.293Z,86883.00
2023-03-14T05:09:41.305Z,86875.00
2023-03-14T05:10:41.310Z,86871.00
2023-03-14T05:11:41.325Z,86867.00
2023-03-14T05:12:41.346Z,86865.00
2023-03-14T05:13:41.360Z,86867.00
2023-03-14T05:14:41.423Z,86861.00
2023-03-14T05:15:41.416Z,86857.00
2023-03-14T05:16:41.420Z,86855.00
2023-03-14T05:17:41.451Z,86851.00
2023-03-14T05:18:41.453Z,86859.00
2023-03-14T05:19:41.509Z,86861.00
2023-03-14T05:20:41.501Z,86869.00
2023-03-14T05:21:41.525Z,86869.00
2023-03-14T05:22:41.544Z,86863.00
2023-03-14T05:23:41.548Z,86857.00
2023-03-14T05:24:41.582Z,86857.00
2023-03-14T05:25:41.617Z,86851.00
2023-03-14T05:26:41.612Z,86849.00
2023-03-14T05:27:41.640Z,86849.00
2023-03-14T05:28:41.653Z,86849.00
2023-03-14T05:29:41.666Z,86845.00
2023-03-14T05:30:41.700Z,86841.00
2023-03-14T05:31:41.760Z,86845.00
2023-03-14T05:32:41.768Z,86837.00
2023-03-14T05:33:41.749Z,86839.00
2023-03-14T05:34:41.759Z,86839.00
2023-03-14T05:35:41.790Z,86834.00
2023-03-14T05:36:41.784Z,86828.00
2023-03-14T05:37:41.800Z,86826.00
2023-03-14T05:38:41.840Z,86826.00
2023-03-14T05:39:41.831Z,86830.00
2023-03-14T05:40:41.856Z,86830.00
2023-03-14T05:41:41.876Z,86826.00
2023-03-14T05:42:41.884Z,86820.00
2023-03-14T05:43:42.012Z,86818.00
2023-03-14T05:44:41.928Z,86816.00
2023-03-14T05:45:42.020Z,86816.00
2023-03-14T05:46:41.964Z,86812.00
2023-03-14T05:47:42.005Z,86816.00
2023-03-14T05:48:42.020Z,86818.00
2023-03-14T05:49:42.034Z,86820.00
2023-03-14T05:50:42.064Z,86822.00
2023-03-14T05:51:42.074Z,86824.00
2023-03-14T05:52:42.094Z,86824.00
2023-03-14T05:53:42.114Z,86818.00
2023-03-14T05:54:42.151Z,86816.00
2023-03-14T05:55:42.167Z,86818.00
2023-03-14T05:56:42.173Z,86810.00
2023-03-14T05:57:42.190Z,86808.00
2023-03-14T05:58:42.225Z,86804.00
2023-03-14T05:59:42.234Z,86802.00
2023-03-14T06:00:42.274Z,86798.00
2023-03-14T06:01:42.358Z,86800.00
2023-03-14T06:02:42.315Z,86798.00
2023-03-14T06:03:42.381Z,86792.00
2023-03-14T06:04:42.371Z,86788.00
2023-03-14T06:05:42.436Z,86786.00
2023-03-14T06:06:42.408Z,86794.00
2023-03-14T06:07:42.446Z,86796.00
2023-03-14T06:08:42.470Z,86796.00
2023-03-14T06:09:42.505Z,86792.00
2023-03-14T06:10:42.522Z,86786.00
2023-03-14T06:11:42.547Z,86786.00
2023-03-14T06:12:42.549Z,86786.00
2023-03-14T06:13:42.576Z,86788.00
2023-03-14T06:14:42.601Z,86788.00
2023-03-14T06:15:42.633Z,86786.00
2023-03-14T06:16:42.670Z,86786.00
2023-03-14T06:17:42.665Z,86782.00
2023-03-14T06:18:42.692Z,86782.00
2023-03-14T06:19:42.724Z,86782.00
2023-03-14T06:20:42.736Z,86779.00
2023-03-14T06:21:42.773Z,86779.00
2023-03-14T06:22:42.803Z,86775.00
2023-03-14T06:23:42.818Z,86773.00
2023-03-14T06:24:42.852Z,86771.00
2023-03-14T06:25:42.861Z,86773.00
2023-03-14T06:26:42.882Z,86777.00
2023-03-14T06:27:42.894Z,86775.00
2023-03-14T06:28:42.940Z,86775.00
2023-03-14T06:29:42.945Z,86779.00
2023-03-14T06:30:42.994Z,86777.00
2023-03-14T06:31:43.013Z,86777.00
2023-03-14T06:32:43.037Z,86790.00
2023-03-14T07:08:42.853Z,86857.00
2023-03-14T07:09:42.848Z,86855.00
2023-03-14T07:10:42.856Z,86855.00
2023-03-14T07:11:42.826Z,86853.00
2023-03-14T07:13:42.864Z,86857.00
2023-03-14T07:15:42.840Z,86855.00
2023-03-14T07:16:42.803Z,86853.00
2023-03-14T07:17:42.801Z,86857.00
2023-03-14T07:18:42.811Z,86857.00
2023-03-14T07:20:42.760Z,86861.00
2023-03-14T07:21:42.755Z,86859.00
2023-03-14T07:22:42.775Z,86859.00
2023-03-14T07:23:42.744Z,86861.00
2023-03-14T07:24:42.742Z,86863.00
2023-03-14T07:25:42.710Z,86859.00
2023-03-14T07:26:42.732Z,86861.00
2023-03-14T07:27:42.710Z,86857.00
2023-03-14T07:29:42.673Z,86855.00
2023-03-14T07:30:42.741Z,86853.00
2023-03-14T07:31:42.664Z,86849.00
2023-03-14T07:32:42.718Z,86851.00
2023-03-14T07:33:42.642Z,86855.00
2023-03-14T07:34:42.611Z,86853.00
2023-03-14T07:35:42.706Z,86855.00
2023-03-14T07:36:42.587Z,86863.00
2023-03-14T07:37:42.608Z,86863.00
2023-03-14T07:38:42.568Z,86863.00
2023-03-14T07:39:42.587Z,86863.00
2023-03-14T07:40:42.541Z,86861.00
2023-03-14T07:41:42.522Z,86865.00
2023-03-14T07:42:42.550Z,86867.00
2023-03-14T07:43:42.492Z,86869.00
2023-03-14T07:44:42.519Z,86865.00
2023-03-14T07:45:43.380Z,86867.00
2023-03-14T07:46:42.510Z,86863.00
2023-03-14T07:48:42.503Z,86857.00
2023-03-14T07:50:42.500Z,86859.00
2023-03-14T07:51:42.515Z,86857.00
2023-03-14T07:52:42.529Z,86859.00
2023-03-14T07:53:42.485Z,86859.00
2023-03-14T07:54:42.496Z,86857.00
2023-03-14T07:55:42.499Z,86859.00
2023-03-14T07:56:42.479Z,86855.00
2023-03-14T07:57:42.492Z,86853.00
2023-03-14T07:58:42.464Z,86853.00
2023-03-14T07:59:42.458Z,86847.00
2023-03-14T08:00:42.433Z,86847.00
2023-03-14T08:01:42.410Z,86843.00
2023-03-14T08:02:42.409Z,86845.00
2023-03-14T08:03:42.415Z,86845.00
2023-03-14T08:04:42.328Z,86847.00
2023-03-14T08:05:42.316Z,86845.00
2023-03-14T08:06:42.308Z,86841.00
2023-03-14T08:07:42.258Z,86843.00
2023-03-14T08:08:42.250Z,86843.00
2023-03-14T08:09:42.240Z,86845.00
2023-03-14T08:10:42.197Z,86845.00
2023-03-14T08:11:42.217Z,86849.00
2023-03-14T08:12:42.190Z,86849.00
2023-03-14T08:13:42.181Z,86845.00
2023-03-14T08:14:42.144Z,86841.00
2023-03-14T08:15:42.158Z,86845.00
2023-03-14T08:16:42.135Z,86841.00
2023-03-14T08:17:42.103Z,86841.00
2023-03-14T08:18:42.082Z,86839.00
2023-03-14T08:19:42.048Z,86839.00
2023-03-14T08:20:42.034Z,86839.00
2023-03-14T08:21:42.039Z,86843.00
2023-03-14T08:22:41.997Z,86843.00
2023-03-14T08:23:41.992Z,86841.00
2023-03-14T08:24:41.950Z,86843.00
2023-03-14T08:25:42.034Z,86849.00
2023-03-14T08:26:41.921Z,86845.00
2023-03-14T08:27:41.888Z,86847.00
2023-03-14T08:28:41.879Z,86843.00
2023-03-14T08:29:41.858Z,86843.00
2023-03-14T08:30:43.697Z,86843.00
2023-03-14T08:31:41.886Z,86843.00
2023-03-14T08:32:41.868Z,86845.00
2023-03-14T08:33:41.804Z,86843.00
2023-03-14T08:34:41.776Z,86841.00
2023-03-14T08:35:41.768Z,86841.00
2023-03-14T08:36:41.839Z,86841.00
2023-03-14T08:37:41.738Z,86839.00
2023-03-14T08:38:41.737Z,86841.00
2023-03-14T08:39:41.692Z,86841.00
2023-03-14T10:15:41.717Z,86890.00
2023-03-14T10:21:41.732Z,86889.00
2023-03-14T10:22:41.714Z,86887.00
2023-03-14T10:23:41.703Z,86890.00
2023-03-14T10:24:41.699Z,86892.00
2023-03-14T10:25:41.722Z,86894.00
2023-03-14T10:26:41.723Z,86896.00
2023-03-14T10:27:41.705Z,86896.00
2023-03-14T10:28:41.708Z,86890.00
2023-03-14T10:29:41.710Z,86889.00
2023-03-14T10:30:41.752Z,86885.00
2023-03-14T10:31:41.716Z,86892.00
2023-03-14T10:32:41.774Z,86883.00
2023-03-14T10:33:41.739Z,86890.00
2023-03-14T10:34:41.752Z,86889.00
2023-03-14T10:35:41.803Z,86892.00
2023-03-14T10:36:41.727Z,86894.00
2023-03-14T10:37:41.730Z,86894.00
2023-03-14T10:38:41.736Z,86896.00
2023-03-14T10:39:41.799Z,86885.00
2023-03-14T10:40:41.749Z,86889.00
2023-03-14T10:41:41.759Z,86883.00
2023-03-14T10:42:41.857Z,86889.00
2023-03-14T10:43:41.770Z,86883.00
2023-03-14T10:44:41.748Z,86885.00
2023-03-14T10:45:41.789Z,86881.00
2023-03-14T10:46:41.851Z,86885.00
2023-03-14T10:47:41.784Z,86885.00
2023-03-14T10:48:41.765Z,86883.00
2023-03-14T10:49:41.794Z,86889.00
2023-03-14T10:50:41.812Z,86867.00
2023-03-14T10:51:41.824Z,86879.00
2023-03-14T10:52:57.720Z,86861.00
2023-03-14T10:53:42.818Z,86859.00
2023-03-14T10:54:41.886Z,86865.00
2023-03-14T10:55:41.872Z,86859.00
2023-03-14T10:56:41.858Z,86853.00
2023-03-14T10:57:41.881Z,86855.00
2023-03-14T10:58:41.875Z,86859.00
2023-03-14T10:59:41.901Z,86857.00
2023-03-14T11:00:41.916Z,86871.00
2023-03-14T11:01:41.977Z,86857.00
2023-03-14T11:02:41.947Z,86859.00
2023-03-14T11:03:42.081Z,86861.00
2023-03-14T11:04:42.016Z,86857.00
2023-03-14T11:05:42.032Z,86857.00
2023-03-14T11:06:42.033Z,86855.00
2023-03-14T11:07:42.078Z,86855.00
2023-03-14T11:08:42.085Z,86859.00
2023-03-14T11:09:42.128Z,86863.00
2023-03-14T11:10:42.164Z,86857.00
2023-03-14T11:11:42.190Z,86855.00
2023-03-14T11:12:42.204Z,86851.00
2023-03-14T11:13:42.243Z,86851.00
2023-03-14T11:14:42.288Z,86849.00
2023-03-14T11:15:42.305Z,86847.00
2023-03-14T11:16:42.291Z,86851.00
2023-03-14T11:17:42.365Z,86839.00
2023-03-14T11:18:42.342Z,86839.00
2023-03-14T11:19:42.526Z,86834.00
2023-03-14T11:20:42.368Z,86835.00
2023-03-14T11:21:42.396Z,86828.00
2023-03-14T11:22:42.419Z,86824.00
2023-03-14T11:23:42.440Z,86828.00
2023-03-14T11:24:42.485Z,86824.00
2023-03-14T11:25:42.514Z,86814.00
2023-03-14T11:26:42.542Z,86816.00
2023-03-14T11:27:42.542Z,86810.00
2023-03-14T11:28:42.556Z,86804.00
2023-03-14T11:29:42.593Z,86810.00
2023-03-14T11:30:42.622Z,86808.00
2023-03-14T11:31:42.630Z,86808.00
2023-03-14T11:32:42.663Z,86806.00
2023-03-14T11:33:42.709Z,86802.00
2023-03-14T11:34:42.717Z,86798.00
2023-03-14T11:35:42.774Z,86796.00
2023-03-14T11:36:42.798Z,86796.00
2023-03-14T11:37:42.821Z,86798.00
2023-03-14T11:38:42.840Z,86800.00
2023-03-14T11:39:42.902Z,86798.00
2023-03-14T11:40:42.895Z,86794.00
2023-03-14T11:41:42.956Z,86794.00
2023-03-14T11:42:42.919Z,86796.00
2023-03-14T11:43:42.946Z,86794.00
2023-03-14T11:44:42.970Z,86786.00
2023-03-14T11:45:43.337Z,86790.00
2023-03-14T11:46:43.051Z,86786.00
2023-03-14T11:47:44.625Z,86782.00
2023-03-14T11:48:43.183Z,86782.00
2023-03-14T11:49:43.075Z,86777.00
2023-03-14T11:50:43.147Z,86780.00
2023-03-14T11:51:43.122Z,86779.00
2023-03-14T11:52:44.412Z,86782.00
2023-03-14T11:53:43.148Z,86786.00
2023-03-14T11:54:43.168Z,86784.00
2023-03-14T11:55:43.267Z,86782.00
2023-03-14T11:56:43.252Z,86786.00
2023-03-14T11:57:43.268Z,86782.00
2023-03-14T11:58:44.476Z,86784.00
2023-03-14T11:59:43.304Z,86784.00
2023-03-14T12:00:43.336Z,86784.00
2023-03-14T12:01:43.398Z,86788.00
2023-03-14T12:02:43.397Z,86788.00
2023-03-14T12:03:43.450Z,86784.00
2023-03-14T12:04:44.490Z,86788.00
2023-03-14T12:05:43.458Z,86779.00
2023-03-14T12:06:43.517Z,86782.00
2023-03-14T12:07:43.567Z,86782.00
2023-03-14T12:08:43.555Z,86779.00
2023-03-14T12:09:43.554Z,86775.00
2023-03-14T12:10:43.559Z,86784.00
2023-03-14T12:11:43.592Z,86773.00
2023-03-14T12:12:43.574Z,86777.00
2023-03-14T12:13:43.602Z,86775.00
2023-03-14T12:14:43.604Z,86773.00
2023-03-14T12:15:43.625Z,86765.00
2023-03-14T12:16:43.706Z,86771.00
2023-03-14T12:17:43.641Z,86767.00
2023-03-14T12:18:43.670Z,86769.00
2023-03-14T12:19:43.728Z,86765.00
2023-03-14T12:20:43.692Z,86759.00
2023-03-14T12:21:43.721Z,86753.00
2023-03-14T12:22:43.709Z,86749.00
2023-03-14T12:23:43.758Z,86749.00
2023-03-14T12:24:43.752Z,86751.00
2023-03-14T12:25:43.810Z,86755.00
2023-03-14T12:26:43.771Z,86759.00
2023-03-14T12:27:43.752Z,86757.00
2023-03-14T12:28:43.761Z,86749.00
2023-03-14T12:29:43.769Z,86753.00
2023-03-14T12:30:43.790Z,86747.00
2023-03-14T12:31:43.870Z,86755.00
2023-03-14T12:32:43.824Z,86751.00
2023-03-14T12:33:43.803Z,86749.00
2023-03-14T12:34:44.120Z,86749.00
2023-03-14T12:35:44.001Z,86751.00
2023-03-14T12:36:43.812Z,86755.00
2023-03-14T12:37:43.837Z,86765.00
2023-03-14T12:38:43.827Z,86753.00
2023-03-14T12:39:43.831Z,86751.00
2023-03-14T12:40:43.853Z,86753.00
2023-03-14T12:41:43.841Z,86755.00
2023-03-14T12:42:45.683Z,86759.00
2023-03-14T12:43:43.835Z,86757.00
2023-03-14T12:44:43.845Z,86757.00
2023-03-14T12:45:45.253Z,86759.00
2023-03-14T12:46:43.855Z,86761.00
2023-03-14T12:47:43.861Z,86757.00
2023-03-14T12:48:43.851Z,86759.00
2023-03-14T12:49:43.855Z,86757.00
2023-03-14T12:50:43.878Z,86759.00
2023-03-14T12:51:43.873Z,86761.00
2023-03-14T12:52:45.815Z,86759.00
2023-03-14T12:53:43.884Z,86757.00
2023-03-14T12:54:43.893Z,86753.00
2023-03-14T12:55:43.926Z,86755.00
2023-03-14T12:56:43.888Z,86757.00
2023-03-14T12:57:43.897Z,86759.00
2023-03-14T12:58:45.332Z,86765.00
2023-03-14T12:59:43.906Z,86763.00
2023-03-14T13:00:43.894Z,86767.00
2023-03-14T13:01:43.902Z,86761.00
2023-03-14T13:02:43.929Z,86763.00
2023-03-14T13:03:43.971Z,86763.00
2023-03-14T13:04:44.028Z,86761.00
2023-03-14T13:05:43.914Z,86761.00
2023-03-14T13:06:43.919Z,86761.00
2023-03-14T13:07:43.923Z,86761.00
2023-03-14T13:08:44.306Z,86763.00
2023-03-14T13:09:43.924Z,86765.00
2023-03-14T13:10:44.215Z,86767.00
2023-03-14T13:11:43.916Z,86771.00
2023-03-14T13:12:43.904Z,86769.00
2023-03-14T13:13:44.815Z,86771.00
2023-03-14T13:14:43.903Z,86771.00
2023-03-14T13:15:43.917Z,86771.00
2023-03-14T13:16:43.949Z,86769.00
2023-03-14T13:17:43.911Z,86767.00
2023-03-14T13:18:43.910Z,86769.00
2023-03-14T13:19:43.904Z,86773.00
2023-03-14T13:20:43.918Z,86775.00
2023-03-14T13:21:43.916Z,86775.00
2023-03-14T13:22:43.903Z,86773.00
2023-03-14T13:23:43.921Z,86779.00
2023-03-14T13:24:43.903Z,86779.00
2023-03-14T13:25:43.889Z,86773.00
2023-03-14T13:26:43.986Z,86777.00
2023-03-14T13:27:43.896Z,86777.00
2023-03-14T13:28:43.892Z,86775.00
2023-03-14T13:29:43.903Z,86777.00
2023-03-14T13:30:43.937Z,86777.00
2023-03-14T13:31:43.917Z,86779.00
2023-03-14T13:32:43.902Z,86780.00
2023-03-14T13:33:43.888Z,86780.00
2023-03-14T13:34:43.943Z,86779.00
2023-03-14T13:35:43.917Z,86779.00
2023-03-14T13:36:43.891Z,86780.00
2023-03-14T13:37:43.877Z,86779.00
2023-03-14T13:38:43.883Z,86780.00
2023-03-14T13:39:43.989Z,86780.00
2023-03-14T14:40:43.659Z,86885.00
2023-03-14T14:45:43.658Z,86879.00
2023-03-14T16:00:43.495Z,87007.00
2023-03-14T16:01:43.465Z,86999.00
2023-03-14T16:02:43.453Z,86999.00
2023-03-14T16:03:43.457Z,86995.00
2023-03-14T16:04:43.518Z,86999.00
2023-03-14T16:05:43.479Z,87003.00
2023-03-14T16:06:43.475Z,87005.00
2023-03-14T16:07:43.470Z,87005.00
2023-03-14T16:08:43.627Z,87005.00
2023-03-14T16:09:43.475Z,87005.00
2023-03-14T16:10:43.472Z,87009.00
2023-03-14T16:11:43.484Z,87005.00
2023-03-14T16:12:43.480Z,87009.00
2023-03-14T16:13:43.479Z,87005.00
2023-03-14T16:14:43.498Z,87005.00
2023-03-14T16:15:43.511Z,87005.00
2023-03-14T16:16:43.604Z,87011.00
2023-03-14T16:17:43.481Z,87009.00
2023-03-14T16:18:43.506Z,87009.00
2023-03-14T16:19:43.495Z,87015.00
2023-03-14T16:20:48.057Z,87013.00
2023-03-14T16:21:44.532Z,87019.00
2023-03-14T16:22:43.511Z,87019.00
2023-03-14T16:23:43.497Z,87025.00
2023-03-14T16:24:43.523Z,87023.00
2023-03-14T16:25:43.519Z,87029.00
2023-03-14T16:26:43.515Z,87031.00
2023-03-14T16:27:43.505Z,87031.00
2023-03-14T16:28:43.499Z,87027.00
2023-03-14T16:29:43.515Z,87035.00
2023-03-14T16:30:43.529Z,87035.00
2023-03-14T16:31:43.649Z,87035.00
2023-03-14T16:32:43.587Z,87039.00
2023-03-14T16:33:43.528Z,87041.00
2023-03-14T16:34:43.524Z,87045.00
2023-03-14T16:35:43.598Z,87045.00
2023-03-14T16:36:43.538Z,87051.00
2023-03-14T16:37:43.528Z,87049.00
2023-03-14T16:38:43.538Z,87052.00
2023-03-14T16:40:07.186Z,87054.00
2023-03-14T16:40:44.549Z,87054.00
2023-03-14T16:41:43.540Z,87056.00
2023-03-14T16:43:14.412Z,87064.00
2023-03-14T16:43:44.549Z,87068.00
2023-03-14T16:44:43.555Z,87066.00
2023-03-14T16:45:43.587Z,87060.00
2023-03-14T16:46:43.732Z,87066.00
2023-03-14T16:47:43.588Z,87070.00
2023-03-14T16:48:43.578Z,87072.00
2023-03-14T16:49:43.563Z,87078.00
2023-03-14T16:50:43.565Z,87076.00
2023-03-14T16:51:43.573Z,87082.00
2023-03-14T16:52:43.580Z,87086.00
2023-03-14T16:53:43.578Z,87080.00
2023-03-14T16:54:43.579Z,87088.00
2023-03-14T16:55:43.606Z,87090.00
2023-03-14T16:56:43.602Z,87092.00
2023-03-14T16:57:43.601Z,87094.00
2023-03-14T16:58:43.585Z,87099.00
2023-03-14T16:59:43.598Z,87103.00
2023-03-14T17:00:43.589Z,87107.00
2023-03-14T17:01:43.634Z,87113.00
2023-03-14T17:02:43.608Z,87115.00
2023-03-14T17:03:43.689Z,87109.00
2023-03-14T17:04:43.594Z,87111.00
2023-03-14T17:05:43.593Z,87117.00
2023-03-14T17:06:43.631Z,87119.00
2023-03-14T17:07:43.605Z,87121.00
2023-03-14T17:08:43.607Z,87129.00
2023-03-14T17:09:43.625Z,87127.00
2023-03-14T17:10:43.658Z,87127.00
2023-03-14T17:11:43.605Z,87123.00
2023-03-14T17:12:43.622Z,87129.00
2023-03-14T17:13:43.623Z,87127.00
2023-03-14T17:14:43.615Z,87131.00
2023-03-14T17:15:43.633Z,87131.00
2023-03-14T17:16:43.636Z,87129.00
2023-03-14T17:17:43.641Z,87137.00
2023-03-14T17:18:43.630Z,87141.00
2023-03-14T17:19:43.636Z,87141.00
2023-03-14T17:20:43.638Z,87141.00
2023-03-14T17:21:43.649Z,87143.00
2023-03-14T17:22:43.637Z,87147.00
2023-03-14T17:23:43.652Z,87153.00
2023-03-14T17:24:43.641Z,87153.00
2023-03-14T17:25:43.644Z,87153.00
2023-03-14T17:26:43.630Z,87153.00
2023-03-14T17:27:46.039Z,87154.00
2023-03-14T17:28:43.744Z,87153.00
2023-03-14T17:29:43.761Z,87158.00
2023-03-14T17:30:43.738Z,87154.00
2023-03-14T17:31:43.790Z,87154.00
2023-03-14T17:32:43.821Z,87158.00
2023-03-14T17:33:43.744Z,87166.00
2023-03-14T17:34:43.747Z,87170.00
2023-03-14T17:35:43.768Z,87178.00
2023-03-14T17:36:43.742Z,87176.00
2023-03-14T17:37:43.749Z,87180.00
2023-03-14T17:38:43.764Z,87192.00
2023-03-14T17:39:43.749Z,87198.00
2023-03-14T17:40:43.757Z,87198.00
2023-03-14T17:41:43.747Z,87198.00
2023-03-14T17:42:43.753Z,87211.00
2023-03-14T17:43:43.741Z,87213.00
2023-03-14T17:44:43.733Z,87216.00
2023-03-14T17:45:43.750Z,87218.00
2023-03-14T17:46:43.761Z,87216.00
2023-03-14T17:47:43.780Z,87218.00
2023-03-14T17:48:43.746Z,87226.00
2023-03-14T17:49:43.730Z,87230.00
2023-03-14T17:50:43.734Z,87234.00
2023-03-14T17:51:43.721Z,87238.00
2023-03-14T17:52:43.750Z,87240.00
2023-03-14T17:53:43.730Z,87244.00
2023-03-14T17:54:43.718Z,87250.00
2023-03-14T17:55:43.728Z,87248.00
2023-03-14T17:56:43.732Z,87252.00
2023-03-14T17:57:43.737Z,87248.00
2023-03-14T17:58:43.708Z,87256.00
2023-03-14T17:59:43.714Z,87258.00
2023-03-14T18:00:43.711Z,87261.00
2023-03-14T18:01:43.853Z,87261.00
2023-03-14T18:02:43.944Z,87261.00
2023-03-14T18:03:43.725Z,87267.00
2023-03-14T18:04:43.865Z,87265.00
2023-03-14T18:05:43.713Z,87267.00
2023-03-14T18:06:43.713Z,87269.00
2023-03-14T18:07:43.732Z,87265.00
2023-03-14T18:08:43.760Z,87271.00
2023-03-14T18:09:43.756Z,87283.00
2023-03-14T18:10:43.713Z,87279.00
2023-03-14T18:11:43.723Z,87287.00
2023-03-14T18:12:43.730Z,87287.00
2023-03-14T18:13:43.720Z,87291.00
2023-03-14T18:14:43.723Z,87297.00
2023-03-14T18:15:43.785Z,87301.00
2023-03-14T18:16:43.717Z,87309.00
2023-03-14T18:17:43.728Z,87301.00
2023-03-14T18:19:43.725Z,87313.00
2023-03-14T18:20:43.706Z,87318.00
2023-03-14T18:21:43.712Z,87311.00
2023-03-14T18:22:43.721Z,87313.00
2023-03-14T18:23:43.747Z,87318.00
2023-03-14T18:24:43.704Z,87318.00
2023-03-14T18:25:43.708Z,87320.00
2023-03-14T18:26:43.723Z,87326.00
2023-03-14T18:27:43.722Z,87324.00
2023-03-14T18:28:43.712Z,87326.00
2023-03-14T18:29:43.697Z,87324.00
2023-03-14T18:30:43.697Z,87324.00
2023-03-14T18:31:43.749Z,87336.00
2023-03-14T18:32:43.749Z,87334.00
2023-03-14T18:33:43.719Z,87336.00
2023-03-14T18:34:43.695Z,87338.00
2023-03-14T18:35:43.750Z,87338.00
2023-03-14T18:36:43.694Z,87340.00
2023-03-14T18:37:45.982Z,87340.00
2023-03-14T18:38:43.832Z,87342.00
2023-03-14T18:39:43.729Z,87342.00
2023-03-14T18:40:43.702Z,87342.00
2023-03-14T18:41:43.716Z,87336.00
2023-03-14T18:42:43.705Z,87342.00
2023-03-14T18:43:43.727Z,87344.00
2023-03-14T18:44:43.725Z,87344.00
2023-03-14T18:45:43.727Z,87348.00
2023-03-14T18:46:43.829Z,87352.00
2023-03-14T18:47:43.736Z,87356.00
2023-03-14T18:48:43.746Z,87352.00
2023-03-14T18:49:43.731Z,87354.00
2023-03-14T18:50:43.723Z,87354.00
2023-03-14T18:51:43.748Z,87358.00
2023-03-14T18:52:43.739Z,87362.00
2023-03-14T18:53:43.736Z,87358.00
2023-03-14T18:54:43.747Z,87358.00
2023-03-14T18:55:43.734Z,87364.00
2023-03-14T18:56:43.737Z,87362.00
2023-03-14T18:57:43.751Z,87366.00
2023-03-14T18:58:43.738Z,87371.00
2023-03-14T18:59:43.759Z,87362.00
2023-03-14T19:00:43.778Z,87367.00
2023-03-14T19:01:43.799Z,87369.00
2023-03-14T19:02:43.738Z,87369.00
2023-03-14T19:03:43.754Z,87367.00
2023-03-14T19:04:43.745Z,87369.00
2023-03-14T19:05:43.750Z,87369.00
2023-03-14T19:06:43.725Z,87371.00
2023-03-14T19:07:43.730Z,87371.00
2023-03-14T19:08:43.742Z,87373.00
2023-03-14T19:09:43.752Z,87375.00
2023-03-14T19:10:43.727Z,87377.00
2023-03-14T19:11:43.863Z,87383.00
2023-03-14T19:12:43.857Z,87381.00
2023-03-14T19:13:43.774Z,87383.00
2023-03-14T19:14:43.728Z,87385.00
2023-03-14T19:15:43.751Z,87385.00
2023-03-14T19:16:43.790Z,87383.00
2023-03-14T19:17:43.734Z,87381.00
2023-03-14T19:18:43.728Z,87383.00
2023-03-14T19:19:43.734Z,87387.00
2023-03-14T19:20:43.721Z,87391.00
2023-03-14T19:21:43.748Z,87395.00
2023-03-14T19:22:43.840Z,87399.00
2023-03-14T19:23:43.740Z,87395.00
2023-03-14T19:24:43.736Z,87395.00
2023-03-14T19:25:43.801Z,87393.00
2023-03-14T19:26:43.738Z,87391.00
2023-03-14T19:27:43.745Z,87389.00
2023-03-14T19:28:43.759Z,87391.00
2023-03-14T19:29:43.772Z,87387.00
2023-03-14T19:30:43.741Z,87385.00
2023-03-14T19:31:43.738Z,87385.00
2023-03-14T19:32:43.867Z,87383.00
2023-03-14T19:33:43.744Z,87379.00
2023-03-14T19:34:43.732Z,87379.00
2023-03-14T19:35:43.812Z,87377.00
2023-03-14T19:36:43.733Z,87373.00
2023-03-14T19:37:43.738Z,87373.00
2023-03-14T19:38:43.729Z,87371.00
2023-03-14T19:39:43.729Z,87367.00